createdAt,value
2023-01-05T00:00:15.555Z,10.41
2023-01-05T00:03:02.610Z,10.42
2023-01-05T00:05:29.676Z,10.42
2023-01-05T00:07:56.724Z,10.45
2023-01-05T00:10:42.129Z,10.41
2023-01-05T00:13:27.817Z,10.40
2023-01-05T00:16:13.300Z,10.46
2023-01-05T00:18:58.887Z,10.45
2023-01-05T00:21:44.351Z,10.42
2023-01-05T00:24:11.284Z,10.47
2023-01-05T00:26:38.087Z,10.45
2023-01-05T00:29:05.137Z,10.48
2023-01-05T00:31:31.896Z,10.47
2023-01-05T00:33:59.074Z,10.46
2023-01-05T00:36:25.787Z,10.48
2023-01-05T00:38:53.907Z,10.46
2023-01-05T00:41:20.661Z,10.44
2023-01-05T00:43:47.703Z,10.47
2023-01-05T00:46:14.464Z,10.50
2023-01-05T00:48:41.545Z,10.49
2023-01-05T00:51:08.330Z,10.49
2023-01-05T00:53:35.347Z,10.50
2023-01-05T00:56:02.089Z,10.53
2023-01-05T00:58:29.164Z,10.49
2023-01-05T01:00:55.937Z,10.52
2023-01-05T01:03:23.109Z,10.49
2023-01-05T01:05:57.487Z,10.49
2023-01-05T01:08:24.623Z,10.56
2023-01-05T01:10:51.401Z,10.60
2023-01-05T01:13:18.419Z,10.54
2023-01-05T01:15:45.190Z,10.59
2023-01-05T01:18:12.238Z,10.60
2023-01-05T01:20:39.685Z,10.55
2023-01-05T01:23:06.763Z,10.57
2023-01-05T01:25:33.493Z,10.61
2023-01-05T01:28:01.430Z,10.61
2023-01-05T01:30:28.243Z,10.61
2023-01-05T01:32:55.320Z,10.60
2023-01-05T01:35:22.070Z,10.54
2023-01-05T01:37:49.085Z,10.63
2023-01-05T01:40:15.815Z,10.63
2023-01-05T01:42:43.839Z,10.64
2023-01-05T01:45:22.972Z,10.66
2023-01-05T01:47:54.649Z,10.68
2023-01-05T01:50:27.384Z,10.72
2023-01-05T01:52:56.514Z,10.69
2023-01-05T01:55:23.284Z,10.72
2023-01-05T01:57:50.356Z,10.71
2023-01-05T02:00:17.310Z,10.68
2023-01-05T02:02:46.575Z,10.72
2023-01-05T02:05:13.306Z,10.75
2023-01-05T02:07:47.924Z,10.75
2023-01-05T02:10:16.934Z,10.79
2023-01-05T02:12:53.060Z,10.77
2023-01-05T02:15:34.989Z,10.80
2023-01-05T02:18:20.690Z,10.82
2023-01-05T02:21:06.599Z,10.87
2023-01-05T02:24:00.871Z,10.86
2023-01-05T02:26:53.288Z,10.87
2023-01-05T02:29:49.726Z,10.86
2023-01-05T02:32:23.418Z,10.90
2023-01-05T02:35:06.014Z,10.88
2023-01-05T02:37:40.845Z,10.89
2023-01-05T02:40:42.399Z,10.90
2023-01-05T02:43:10.005Z,10.86
2023-01-05T02:45:37.053Z,10.84
2023-01-05T02:48:04.867Z,10.83
2023-01-05T02:50:44.288Z,10.90
2023-01-05T02:53:18.327Z,10.97
2023-01-05T02:55:49.829Z,10.95
2023-01-05T02:58:23.771Z,10.93
2023-01-05T03:00:53.158Z,10.99
2023-01-05T03:03:23.579Z,10.99
2023-01-05T03:05:54.847Z,10.97
2023-01-05T03:08:32.097Z,10.98
2023-01-05T03:11:25.636Z,11.04
2023-01-05T03:14:13.760Z,11.05
2023-01-05T03:16:40.906Z,11.05
2023-01-05T03:19:31.330Z,11.03
2023-01-05T03:22:16.939Z,11.05
2023-01-05T03:25:02.296Z,11.03
2023-01-05T03:27:48.480Z,11.06
2023-01-05T03:30:33.875Z,11.07
2023-01-05T03:33:22.279Z,11.06
2023-01-05T03:35:49.056Z,11.08
2023-01-05T03:38:27.989Z,11.11
2023-01-05T03:40:57.269Z,11.13
2023-01-05T03:43:24.348Z,11.10
2023-01-05T03:45:56.283Z,11.08
2023-01-05T03:48:24.355Z,11.14
2023-01-05T03:50:51.120Z,11.17
2023-01-05T03:53:18.401Z,11.20
2023-01-05T03:55:45.128Z,11.16
2023-01-05T03:58:12.192Z,11.19
2023-01-05T04:00:38.985Z,11.18
2023-01-05T04:03:06.256Z,11.18
2023-01-05T04:05:33.150Z,11.19
2023-01-05T04:08:00.403Z,11.24
2023-01-05T04:10:27.227Z,11.18
2023-01-05T04:12:54.220Z,11.21
2023-01-05T04:15:20.974Z,11.22
2023-01-05T04:17:48.052Z,11.22
2023-01-05T04:20:14.869Z,11.22
2023-01-05T04:22:42.019Z,11.20
2023-01-05T04:25:08.990Z,11.23
2023-01-05T04:27:36.054Z,11.27
2023-01-05T04:30:02.957Z,11.24
2023-01-05T04:32:30.317Z,11.22
2023-01-05T04:34:57.093Z,11.25
2023-01-05T04:37:24.169Z,11.25
2023-01-05T04:39:50.924Z,11.24
2023-01-05T04:42:18.040Z,11.28
2023-01-05T04:44:44.755Z,11.23
2023-01-05T04:47:11.780Z,11.22
2023-01-05T04:49:38.538Z,11.24
2023-01-05T04:52:06.281Z,11.28
2023-01-05T04:54:33.127Z,11.26
2023-01-05T04:57:00.166Z,11.30
2023-01-05T04:59:26.900Z,11.31
2023-01-05T05:01:54.071Z,11.30
2023-01-05T05:04:20.905Z,11.33
2023-01-05T05:06:48.039Z,11.36
2023-01-05T05:09:14.768Z,11.31
2023-01-05T05:11:41.810Z,11.31
2023-01-05T05:14:08.682Z,11.37
2023-01-05T05:16:35.725Z,11.32
2023-01-05T05:19:02.468Z,11.33
2023-01-05T05:21:29.555Z,11.32
2023-01-05T05:23:56.344Z,11.35
2023-01-05T05:26:23.495Z,11.35
2023-01-05T05:28:50.301Z,11.37
2023-01-05T05:31:19.356Z,11.36
2023-01-05T05:33:46.264Z,11.39
2023-01-05T05:36:13.354Z,11.38
2023-01-05T05:38:40.120Z,11.39
2023-01-05T05:41:07.312Z,11.39
2023-01-05T05:43:34.094Z,11.41
2023-01-05T05:46:01.262Z,11.41
2023-01-05T05:48:28.061Z,11.38
2023-01-05T05:50:55.291Z,11.37
2023-01-05T05:53:22.093Z,11.54
2023-01-05T05:55:50.013Z,11.58
2023-01-05T05:58:19.907Z,11.56
2023-01-05T06:00:47.281Z,11.56
2023-01-05T06:03:14.320Z,11.51
2023-01-05T06:05:41.498Z,11.48
2023-01-05T06:08:09.303Z,11.51
2023-01-05T06:10:36.420Z,11.47
2023-01-05T06:13:04.509Z,11.51
2023-01-05T06:15:31.566Z,11.54
2023-01-05T06:17:58.347Z,11.51
2023-01-05T06:20:25.496Z,11.56
2023-01-05T06:22:52.246Z,11.51
2023-01-05T06:25:19.414Z,11.54
2023-01-05T06:27:46.202Z,11.55
2023-01-05T06:30:13.814Z,11.55
2023-01-05T06:32:40.670Z,11.52
2023-01-05T06:35:08.049Z,11.54
2023-01-05T06:37:34.835Z,11.51
2023-01-05T06:40:02.281Z,11.56
2023-01-05T06:42:29.081Z,11.56
2023-01-05T06:44:56.247Z,11.53
2023-01-05T06:47:23.078Z,11.57
2023-01-05T06:49:50.196Z,11.54
2023-01-05T06:52:17.204Z,11.55
2023-01-05T06:54:44.663Z,11.54
2023-01-05T06:57:11.715Z,11.57
2023-01-05T06:59:39.159Z,11.58
2023-01-05T07:02:06.869Z,11.60
2023-01-05T07:04:34.005Z,11.56
2023-01-05T07:07:00.802Z,11.49
2023-01-05T07:09:27.894Z,11.53
2023-01-05T07:11:54.670Z,11.56
2023-01-05T07:14:21.740Z,11.52
2023-01-05T07:16:48.548Z,11.51
2023-01-05T07:19:15.729Z,11.47
2023-01-05T07:21:42.535Z,11.50
2023-01-05T07:24:10.786Z,11.52
2023-01-05T07:26:37.565Z,11.53
2023-01-05T07:29:04.716Z,11.48
2023-01-05T07:31:31.558Z,11.48
2023-01-05T07:33:58.664Z,11.48
2023-01-05T07:36:25.560Z,11.53
2023-01-05T07:38:59.641Z,11.52
2023-01-05T07:41:26.597Z,11.52
2023-01-05T07:43:53.704Z,11.53
2023-01-05T07:46:20.640Z,11.48
2023-01-05T07:48:47.820Z,11.50
2023-01-05T07:51:14.616Z,11.46
2023-01-05T07:53:44.644Z,11.44
2023-01-05T07:56:12.227Z,11.36
2023-01-05T07:58:39.366Z,11.35
2023-01-05T08:01:08.313Z,11.34
2023-01-05T08:03:35.817Z,11.42
2023-01-05T08:06:09.166Z,11.40
2023-01-05T08:08:36.369Z,11.43
2023-01-05T08:11:06.956Z,11.44
2023-01-05T08:13:52.520Z,11.45
2023-01-05T08:16:19.418Z,11.46
2023-01-05T08:18:46.663Z,11.39
2023-01-05T08:21:13.500Z,11.41
2023-01-05T08:23:40.649Z,11.40
2023-01-05T08:26:14.738Z,11.42
2023-01-05T08:28:42.050Z,11.39
2023-01-05T08:31:12.474Z,11.38
2023-01-05T08:33:40.660Z,11.42
2023-01-05T08:36:11.526Z,11.43
2023-01-05T08:38:38.701Z,11.45
2023-01-05T08:41:05.677Z,11.42
2023-01-05T08:43:32.769Z,11.43
2023-01-05T08:45:59.643Z,11.43
2023-01-05T08:48:26.791Z,11.44
2023-01-05T08:50:53.663Z,11.45
2023-01-05T08:53:20.776Z,11.38
2023-01-05T08:55:47.633Z,11.42
2023-01-05T08:58:14.775Z,11.42
2023-01-05T09:00:41.680Z,11.40
2023-01-05T09:03:09.545Z,11.43
2023-01-05T09:05:36.451Z,11.45
2023-01-05T09:08:05.008Z,11.44
2023-01-05T09:10:31.776Z,11.46
2023-01-05T09:12:59.044Z,11.46
2023-01-05T09:15:25.832Z,11.47
2023-01-05T09:17:53.020Z,11.49
2023-01-05T09:20:19.883Z,11.48
2023-01-05T09:22:47.017Z,11.48
2023-01-05T09:25:13.854Z,11.47
2023-01-05T09:27:41.501Z,11.49
2023-01-05T09:30:09.028Z,11.51
2023-01-05T09:32:37.315Z,11.52
2023-01-05T09:35:04.591Z,11.46
2023-01-05T09:37:31.706Z,11.50
2023-01-05T09:39:58.502Z,11.51
2023-01-05T09:42:27.564Z,11.54
2023-01-05T09:45:00.513Z,11.54
2023-01-05T09:47:37.728Z,11.59
2023-01-05T09:50:11.740Z,11.57
2023-01-05T09:52:38.957Z,11.56
2023-01-05T09:55:17.089Z,11.54
2023-01-05T09:58:06.447Z,11.57
2023-01-05T10:00:33.300Z,11.58
2023-01-05T10:03:29.289Z,11.59
2023-01-05T10:05:59.627Z,11.60
2023-01-05T10:08:34.309Z,11.62
2023-01-05T10:11:26.678Z,11.65
2023-01-05T10:14:03.349Z,11.64
2023-01-05T10:16:30.209Z,11.64
2023-01-05T10:18:57.441Z,11.67
2023-01-05T10:21:51.248Z,11.69
2023-01-05T10:24:31.247Z,11.71
2023-01-05T10:27:26.836Z,11.75
2023-01-05T10:29:57.811Z,11.76
2023-01-05T10:32:26.482Z,11.76
2023-01-05T10:35:00.629Z,11.75
2023-01-05T10:37:45.674Z,11.79
2023-01-05T10:40:46.821Z,11.80
2023-01-05T10:43:46.355Z,11.83
2023-01-05T10:46:33.874Z,11.84
2023-01-05T10:49:00.349Z,11.88
2023-01-05T10:51:32.216Z,11.87
2023-01-05T10:53:59.080Z,11.92
2023-01-05T10:56:28.711Z,11.97
2023-01-05T10:59:15.943Z,11.98
2023-01-05T11:01:44.132Z,12.03
2023-01-05T11:07:04.675Z,12.07
2023-01-05T11:09:31.548Z,12.10
2023-01-05T11:11:59.787Z,12.14
2023-01-05T11:14:27.378Z,12.19
2023-01-05T11:16:55.417Z,12.21
2023-01-05T11:19:33.459Z,12.24
2023-01-05T11:22:02.326Z,12.29
2023-01-05T11:24:34.317Z,12.34
2023-01-05T11:27:22.859Z,12.32
2023-01-05T11:30:17.250Z,12.44
2023-01-05T11:33:01.841Z,12.50
2023-01-05T11:35:33.502Z,12.54
2023-01-05T11:38:00.859Z,12.57
2023-01-05T11:40:29.930Z,12.60
2023-01-05T11:42:57.966Z,12.57
2023-01-05T11:45:32.829Z,12.64
2023-01-05T11:48:01.878Z,12.68
2023-01-05T11:50:31.284Z,12.72
2023-01-05T11:52:59.702Z,12.72
2023-01-05T11:55:37.962Z,12.77
2023-01-05T11:58:17.872Z,12.81
2023-01-05T12:01:12.881Z,12.85
2023-01-05T12:04:01.984Z,12.83
2023-01-05T12:06:35.057Z,12.87
2023-01-05T12:09:22.070Z,12.85
2023-01-05T12:11:58.951Z,12.91
2023-01-05T12:14:41.229Z,12.93
2023-01-05T12:17:15.591Z,12.98
2023-01-05T12:20:03.667Z,12.96
2023-01-05T12:22:42.639Z,12.97
2023-01-05T12:25:16.121Z,12.94
2023-01-05T12:28:35.658Z,12.96
2023-01-05T12:34:30.695Z,12.92
2023-01-05T12:37:22.037Z,12.95
2023-01-05T12:39:54.891Z,12.97
2023-01-05T12:43:12.542Z,12.98
2023-01-05T12:45:52.159Z,12.95
2023-01-05T12:48:33.925Z,12.94
2023-01-05T12:51:19.115Z,12.96
2023-01-05T12:53:50.805Z,12.96
2023-01-05T12:56:26.043Z,13.01
2023-01-05T12:59:05.345Z,12.96
2023-01-05T13:01:35.269Z,12.97
2023-01-05T13:04:04.196Z,13.00
2023-01-05T13:06:37.577Z,12.99
2023-01-05T13:09:17.121Z,12.96
2023-01-05T13:11:58.480Z,12.96
2023-01-05T13:14:31.042Z,12.96
2023-01-05T13:17:06.512Z,12.96
2023-01-05T13:19:36.648Z,12.96
2023-01-05T13:22:07.141Z,12.93
2023-01-05T13:24:50.544Z,12.95
2023-01-05T13:27:17.373Z,12.95
2023-01-05T13:29:47.080Z,12.93
2023-01-05T13:32:20.124Z,12.96
2023-01-05T13:35:21.581Z,12.92
2023-01-05T13:38:06.629Z,12.94
2023-01-05T13:40:52.553Z,12.94
2023-01-05T13:43:28.509Z,12.94
2023-01-05T13:46:20.222Z,12.92
2023-01-05T13:49:12.589Z,12.92
2023-01-05T13:52:03.277Z,12.93
2023-01-05T13:55:00.374Z,12.90
2023-01-05T13:57:30.329Z,12.90
2023-01-05T14:00:07.692Z,12.91
2023-01-05T14:02:38.948Z,12.92
2023-01-05T14:05:16.658Z,12.93
2023-01-05T14:07:43.836Z,12.93
2023-01-05T14:10:22.407Z,12.90
2023-01-05T14:12:50.278Z,12.95
2023-01-05T14:15:42.188Z,12.92
2023-01-05T14:18:46.865Z,12.92
2023-01-05T14:21:37.938Z,12.90
2023-01-05T14:24:23.939Z,12.90
2023-01-05T14:27:10.743Z,12.92
2023-01-05T14:32:37.898Z,12.91
2023-01-05T14:35:37.110Z,12.89
2023-01-05T14:38:16.351Z,12.87
2023-01-05T14:40:49.615Z,12.87
2023-01-05T14:43:21.260Z,12.88
2023-01-05T14:46:09.782Z,12.90
2023-01-05T14:48:39.674Z,12.86
2023-01-05T14:51:20.085Z,12.85
2023-01-05T14:53:48.245Z,12.87
2023-01-05T14:56:21.671Z,12.87
2023-01-05T14:59:01.329Z,12.88
2023-01-05T15:01:33.371Z,12.87
2023-01-05T15:04:03.293Z,12.89
2023-01-05T15:06:47.540Z,12.85
2023-01-05T15:09:41.485Z,12.83
2023-01-05T15:12:20.726Z,12.80
2023-01-05T15:14:53.573Z,12.80
2023-01-05T15:18:02.881Z,12.74
2023-01-05T15:21:11.658Z,12.72
2023-01-05T15:24:01.462Z,12.73
2023-01-05T15:26:47.039Z,12.73
2023-01-05T15:29:41.830Z,12.69
2023-01-05T15:32:21.129Z,12.69
2023-01-05T15:34:52.094Z,12.67
2023-01-05T15:37:36.163Z,12.68
2023-01-05T15:40:07.573Z,12.65
2023-01-05T15:42:45.044Z,12.61
2023-01-05T15:45:28.059Z,12.60
2023-01-05T15:47:56.726Z,12.55
2023-01-05T15:50:47.457Z,12.55
2023-01-05T15:53:27.462Z,12.53
2023-01-05T15:55:54.958Z,12.48
2023-01-05T15:58:21.970Z,12.46
2023-01-05T16:01:01.271Z,12.44
2023-01-05T16:03:30.311Z,12.46
2023-01-05T16:05:58.717Z,12.43
2023-01-05T16:08:25.556Z,12.42
2023-01-05T16:10:56.041Z,12.44
2023-01-05T16:13:30.382Z,12.46
2023-01-05T16:15:58.731Z,12.44
2023-01-05T16:18:28.154Z,12.39
2023-01-05T16:20:56.078Z,12.34
2023-01-05T16:23:40.390Z,12.31
2023-01-05T16:26:13.391Z,12.25
2023-01-05T16:28:40.499Z,12.22
2023-01-05T16:31:28.922Z,12.16
2023-01-05T16:34:29.530Z,12.17
2023-01-05T16:36:59.625Z,12.12
2023-01-05T16:39:27.237Z,12.11
2023-01-05T16:42:23.628Z,12.10
2023-01-05T16:44:56.679Z,12.07
2023-01-05T16:47:38.083Z,12.06
2023-01-05T16:50:37.311Z,12.06
2023-01-05T16:53:14.344Z,12.05
2023-01-05T16:55:41.295Z,12.05
2023-01-05T16:58:29.815Z,12.01
2023-01-05T17:01:24.342Z,12.04
2023-01-05T17:03:51.814Z,12.05
2023-01-05T17:06:27.444Z,12.04
2023-01-05T17:08:55.566Z,12.03
2023-01-05T17:11:22.387Z,11.97
2023-01-05T17:13:53.852Z,11.98
2023-01-05T17:16:21.231Z,11.99
2023-01-05T17:18:49.932Z,11.97
2023-01-05T17:21:18.982Z,11.96
2023-01-05T17:23:48.548Z,11.97
2023-01-05T17:26:35.804Z,12.01
2023-01-05T17:31:35.437Z,12.00
2023-01-05T17:34:02.621Z,11.97
2023-01-05T17:36:32.577Z,11.96
2023-01-05T17:39:00.109Z,11.93
2023-01-05T17:41:26.933Z,11.96
2023-01-05T17:43:54.048Z,11.97
2023-01-05T17:46:22.393Z,12.00
2023-01-05T17:48:49.581Z,11.98
2023-01-05T17:51:16.445Z,12.04
2023-01-05T17:53:43.527Z,12.01
2023-01-05T17:56:10.299Z,12.01
2023-01-05T17:58:37.795Z,11.95
2023-01-05T18:01:06.259Z,11.93
2023-01-05T18:03:33.420Z,11.95
2023-01-05T18:06:00.830Z,11.97
2023-01-05T18:08:27.998Z,11.93
2023-01-05T18:10:54.852Z,11.93
2023-01-05T18:13:22.858Z,11.91
2023-01-05T18:15:50.678Z,11.84
2023-01-05T18:18:18.644Z,11.87
2023-01-05T18:20:45.775Z,11.83
2023-01-05T18:23:12.581Z,11.85
2023-01-05T18:25:39.732Z,11.86
2023-01-05T18:28:06.868Z,11.87
2023-01-05T18:30:33.941Z,11.80
2023-01-05T18:33:00.794Z,11.79
2023-01-05T18:35:27.899Z,11.77
2023-01-05T18:38:01.065Z,11.69
2023-01-05T18:40:28.616Z,11.68
2023-01-05T18:42:55.517Z,11.68
2023-01-05T18:45:31.935Z,11.63
2023-01-05T18:48:04.973Z,11.64
2023-01-05T18:50:32.066Z,11.65
2023-01-05T18:52:58.937Z,11.63
2023-01-05T18:55:26.016Z,11.62
2023-01-05T18:57:52.905Z,11.62
2023-01-05T19:00:20.907Z,11.61
2023-01-05T19:02:48.843Z,11.60
2023-01-05T19:05:16.254Z,11.60
2023-01-05T19:07:43.003Z,11.57
2023-01-05T19:10:10.112Z,11.52
2023-01-05T19:12:37.078Z,11.52
2023-01-05T19:15:04.458Z,11.55
2023-01-05T19:17:33.604Z,11.55
2023-01-05T19:20:00.799Z,11.49
2023-01-05T19:22:27.794Z,11.45
2023-01-05T19:24:54.945Z,11.48
2023-01-05T19:27:21.868Z,11.49
2023-01-05T19:29:49.078Z,11.50
2023-01-05T19:32:15.866Z,11.50
2023-01-05T19:34:43.039Z,11.49
2023-01-05T19:37:09.951Z,11.52
2023-01-05T19:39:38.253Z,11.47
2023-01-05T19:42:05.923Z,11.51
2023-01-05T19:44:33.105Z,11.47
2023-01-05T19:46:59.918Z,11.47
2023-01-05T19:49:27.379Z,11.49
2023-01-05T19:51:54.369Z,11.47
2023-01-05T19:54:22.601Z,11.46
2023-01-05T19:56:49.613Z,11.42
2023-01-05T19:59:24.623Z,11.43
2023-01-05T20:01:52.237Z,11.42
2023-01-05T20:04:19.451Z,11.41
2023-01-05T20:06:46.271Z,11.41
2023-01-05T20:09:15.203Z,11.40
2023-01-05T20:11:43.737Z,11.40
2023-01-05T20:14:18.208Z,11.43
2023-01-05T20:16:56.855Z,11.39
2023-01-05T20:19:26.782Z,11.41
2023-01-05T20:21:54.204Z,11.39
2023-01-05T20:24:23.482Z,11.36
2023-01-05T20:26:51.471Z,11.31
2023-01-05T20:29:19.484Z,11.33
2023-01-05T20:31:49.360Z,11.33
2023-01-05T20:34:19.308Z,11.34
2023-01-05T20:36:46.275Z,11.27
2023-01-05T20:39:16.235Z,11.25
2023-01-05T20:41:43.728Z,11.26
2023-01-05T20:44:11.049Z,11.25
2023-01-05T20:46:40.616Z,11.26
2023-01-05T20:49:08.025Z,11.21
2023-01-05T20:51:34.938Z,11.22
2023-01-05T20:54:02.677Z,11.13
2023-01-05T20:56:33.873Z,11.10
2023-01-05T20:59:00.991Z,11.06
2023-01-05T21:01:27.894Z,11.09
2023-01-05T21:03:55.044Z,11.10
2023-01-05T21:06:21.873Z,11.06
2023-01-05T21:08:50.192Z,11.07
2023-01-05T21:11:18.142Z,11.13
2023-01-05T21:13:49.632Z,11.16
2023-01-05T21:16:18.787Z,11.10
2023-01-05T21:18:45.983Z,11.08
2023-01-05T21:21:14.316Z,11.09
2023-01-05T21:23:41.454Z,11.04
2023-01-05T21:26:13.700Z,11.05
2023-01-05T21:28:43.249Z,11.01
2023-01-05T21:31:18.136Z,10.97
2023-01-05T21:33:45.316Z,10.95
2023-01-05T21:36:17.996Z,10.94
2023-01-05T21:39:00.086Z,11.01
2023-01-05T21:41:46.144Z,11.02
2023-01-05T21:44:13.708Z,11.00
2023-01-05T21:46:41.137Z,11.00
2023-01-05T21:49:09.072Z,11.04
2023-01-05T21:51:54.432Z,10.97
2023-01-05T21:54:40.074Z,10.97
2023-01-05T21:57:06.877Z,10.94
2023-01-05T21:59:33.992Z,10.99
2023-01-05T22:02:00.811Z,10.97
2023-01-05T22:04:27.893Z,10.98
2023-01-05T22:06:54.710Z,10.98
2023-01-05T22:09:21.812Z,10.99
2023-01-05T22:11:48.668Z,11.00
2023-01-05T22:14:16.121Z,10.99
2023-01-05T22:16:42.969Z,10.91
2023-01-05T22:19:11.148Z,10.93
2023-01-05T22:21:38.139Z,10.92
2023-01-05T22:24:06.011Z,10.92
2023-01-05T22:26:32.790Z,10.93
2023-01-05T22:28:59.973Z,10.92
2023-01-05T22:31:28.442Z,10.90
2023-01-05T22:33:57.887Z,10.87
2023-01-05T22:36:25.360Z,10.91
2023-01-05T22:38:52.805Z,10.90
2023-01-05T22:41:25.488Z,10.88
2023-01-05T22:43:52.827Z,10.87
2023-01-05T22:46:21.075Z,10.86
2023-01-05T22:48:49.977Z,10.82
2023-01-05T22:51:18.889Z,10.84
2023-01-05T22:53:46.134Z,10.82
2023-01-05T22:56:13.846Z,10.86
2023-01-05T22:58:41.026Z,10.86
2023-01-05T23:01:15.224Z,10.87
2023-01-05T23:03:42.902Z,10.87
2023-01-05T23:06:09.748Z,10.82
2023-01-05T23:08:37.860Z,10.80
2023-01-05T23:11:07.304Z,10.81
2023-01-05T23:13:34.392Z,10.81
2023-01-05T23:16:01.317Z,10.81
2023-01-05T23:18:28.358Z,10.81
2023-01-05T23:20:56.384Z,10.78
2023-01-05T23:23:23.771Z,10.77
2023-01-05T23:25:51.218Z,10.76
2023-01-05T23:28:18.896Z,10.73
2023-01-05T23:30:46.336Z,10.73
2023-01-05T23:33:14.088Z,10.72
2023-01-05T23:35:42.224Z,10.75
2023-01-05T23:38:09.473Z,10.75
2023-01-05T23:40:47.074Z,10.75
2023-01-05T23:43:15.162Z,10.72
2023-01-05T23:45:43.124Z,10.71
2023-01-05T23:48:10.698Z,10.69
2023-01-05T23:50:40.611Z,10.70
2023-01-05T23:53:07.702Z,10.68
2023-01-05T23:55:34.571Z,10.68
2023-01-05T23:58:01.653Z,10.66
